sensor_id;sensor_type;location;lat;lon;timestamp;temperature;humidity
55777;DHT22;54079;44.540;18.784;2022-08-26T00:01:26;20.50;99.90
55777;DHT22;54079;44.540;18.784;2022-08-26T00:03:52;20.50;99.90
55777;DHT22;54079;44.540;18.784;2022-08-26T00:06:18;20.40;99.90
55777;DHT22;54079;44.540;18.784;2022-08-26T00:08:45;20.40;99.90
55777;DHT22;54079;44.540;18.784;2022-08-26T00:11:11;20.40;99.90
55777;DHT22;54079;44.540;18.784;2022-08-26T00:13:38;20.40;99.90
55777;DHT22;54079;44.540;18.784;2022-08-26T00:16:05;20.40;99.90
55777;DHT22;54079;44.540;18.784;2022-08-26T00:18:32;20.30;99.90
55777;DHT22;54079;44.540;18.784;2022-08-26T00:20:58;20.30;99.90
55777;DHT22;54079;44.540;18.784;2022-08-26T00:23:24;20.30;99.90
55777;DHT22;54079;44.540;18.784;2022-08-26T00:25:51;20.30;99.90
55777;DHT22;54079;44.540;18.784;2022-08-26T00:28:17;20.30;99.90
55777;DHT22;54079;44.540;18.784;2022-08-26T00:30:43;20.30;99.90
55777;DHT22;54079;44.540;18.784;2022-08-26T00:33:13;20.30;99.90
55777;DHT22;54079;44.540;18.784;2022-08-26T00:35:40;20.30;99.90
55777;DHT22;54079;44.540;18.784;2022-08-26T00:38:06;20.30;99.90
55777;DHT22;54079;44.540;18.784;2022-08-26T00:40:44;20.40;99.90
55777;DHT22;54079;44.540;18.784;2022-08-26T00:43:10;20.30;99.90
55777;DHT22;54079;44.540;18.784;2022-08-26T00:46:00;20.20;99.90
55777;DHT22;54079;44.540;18.784;2022-08-26T00:48:29;20.20;99.90
55777;DHT22;54079;44.540;18.784;2022-08-26T00:51:05;20.20;99.90
55777;DHT22;54079;44.540;18.784;2022-08-26T00:53:35;20.20;99.90
55777;DHT22;54079;44.540;18.784;2022-08-26T00:56:12;20.20;99.90
55777;DHT22;54079;44.540;18.784;2022-08-26T00:58:40;20.20;99.90
55777;DHT22;54079;44.540;18.784;2022-08-26T01:01:08;20.20;99.90
55777;DHT22;54079;44.540;18.784;2022-08-26T01:03:36;20.20;99.90
55777;DHT22;54079;44.540;18.784;2022-08-26T01:06:02;20.20;99.90
55777;DHT22;54079;44.540;18.784;2022-08-26T01:08:30;20.20;99.90
55777;DHT22;54079;44.540;18.784;2022-08-26T01:10:57;20.20;99.90
55777;DHT22;54079;44.540;18.784;2022-08-26T01:13:24;20.10;99.90
55777;DHT22;54079;44.540;18.784;2022-08-26T01:15:54;20.20;99.90
55777;DHT22;54079;44.540;18.784;2022-08-26T01:18:21;20.10;99.90
55777;DHT22;54079;44.540;18.784;2022-08-26T01:21:10;20.20;99.90
55777;DHT22;54079;44.540;18.784;2022-08-26T01:23:42;20.10;99.90
55777;DHT22;54079;44.540;18.784;2022-08-26T01:26:13;20.00;99.90
55777;DHT22;54079;44.540;18.784;2022-08-26T01:28:40;20.10;99.90
55777;DHT22;54079;44.540;18.784;2022-08-26T01:31:10;20.10;99.90
55777;DHT22;54079;44.540;18.784;2022-08-26T01:36:48;20.30;99.90
55777;DHT22;54079;44.540;18.784;2022-08-26T01:39:16;20.30;99.90
55777;DHT22;54079;44.540;18.784;2022-08-26T01:41:42;20.30;99.90
55777;DHT22;54079;44.540;18.784;2022-08-26T01:44:15;20.30;99.90
55777;DHT22;54079;44.540;18.784;2022-08-26T01:46:44;20.40;99.90
55777;DHT22;54079;44.540;18.784;2022-08-26T01:49:11;20.40;99.90
55777;DHT22;54079;44.540;18.784;2022-08-26T01:51:39;20.50;99.90
55777;DHT22;54079;44.540;18.784;2022-08-26T01:54:06;20.40;99.90
55777;DHT22;54079;44.540;18.784;2022-08-26T01:56:33;20.40;99.90
55777;DHT22;54079;44.540;18.784;2022-08-26T01:59:02;20.40;99.90
55777;DHT22;54079;44.540;18.784;2022-08-26T02:01:29;20.40;99.90
55777;DHT22;54079;44.540;18.784;2022-08-26T02:06:26;20.50;99.90
55777;DHT22;54079;44.540;18.784;2022-08-26T02:08:55;20.40;99.90
55777;DHT22;54079;44.540;18.784;2022-08-26T02:11:23;20.50;99.90
55777;DHT22;54079;44.540;18.784;2022-08-26T02:13:59;20.50;99.90
55777;DHT22;54079;44.540;18.784;2022-08-26T02:16:32;20.50;99.90
55777;DHT22;54079;44.540;18.784;2022-08-26T02:19:00;20.50;99.90
55777;DHT22;54079;44.540;18.784;2022-08-26T02:21:27;20.50;99.90
55777;DHT22;54079;44.540;18.784;2022-08-26T02:23:54;20.50;99.90
55777;DHT22;54079;44.540;18.784;2022-08-26T02:26:23;20.30;99.90
55777;DHT22;54079;44.540;18.784;2022-08-26T02:29:02;20.30;99.90
55777;DHT22;54079;44.540;18.784;2022-08-26T02:31:30;20.40;99.90
55777;DHT22;54079;44.540;18.784;2022-08-26T02:34:13;20.30;99.90
55777;DHT22;54079;44.540;18.784;2022-08-26T02:36:39;20.30;99.90
55777;DHT22;54079;44.540;18.784;2022-08-26T02:39:06;20.30;99.90
55777;DHT22;54079;44.540;18.784;2022-08-26T02:41:33;20.30;99.90
55777;DHT22;54079;44.540;18.784;2022-08-26T02:43:59;20.20;99.90
55777;DHT22;54079;44.540;18.784;2022-08-26T02:46:26;20.30;99.90
55777;DHT22;54079;44.540;18.784;2022-08-26T02:48:52;20.20;99.90
55777;DHT22;54079;44.540;18.784;2022-08-26T02:51:18;20.20;99.90
55777;DHT22;54079;44.540;18.784;2022-08-26T02:53:44;20.20;99.90
55777;DHT22;54079;44.540;18.784;2022-08-26T02:56:10;20.20;99.90
55777;DHT22;54079;44.540;18.784;2022-08-26T02:58:36;20.30;99.90
55777;DHT22;54079;44.540;18.784;2022-08-26T03:01:02;20.30;99.90
55777;DHT22;54079;44.540;18.784;2022-08-26T03:03:28;20.30;99.90
55777;DHT22;54079;44.540;18.784;2022-08-26T03:05:54;20.30;99.90
55777;DHT22;54079;44.540;18.784;2022-08-26T03:08:20;20.20;99.90
55777;DHT22;54079;44.540;18.784;2022-08-26T03:10:46;20.20;99.90
55777;DHT22;54079;44.540;18.784;2022-08-26T03:13:13;20.20;99.90
55777;DHT22;54079;44.540;18.784;2022-08-26T03:15:39;20.20;99.90
55777;DHT22;54079;44.540;18.784;2022-08-26T03:18:06;20.20;99.90
55777;DHT22;54079;44.540;18.784;2022-08-26T03:20:33;20.10;99.90
55777;DHT22;54079;44.540;18.784;2022-08-26T03:22:59;20.10;99.90
55777;DHT22;54079;44.540;18.784;2022-08-26T03:25:26;20.10;99.90
55777;DHT22;54079;44.540;18.784;2022-08-26T03:27:52;20.10;99.90
55777;DHT22;54079;44.540;18.784;2022-08-26T03:30:19;20.10;99.90
55777;DHT22;54079;44.540;18.784;2022-08-26T03:33:03;20.10;99.90
55777;DHT22;54079;44.540;18.784;2022-08-26T03:35:31;20.00;99.90
55777;DHT22;54079;44.540;18.784;2022-08-26T03:37:57;19.90;99.90
55777;DHT22;54079;44.540;18.784;2022-08-26T03:40:24;19.90;99.90
55777;DHT22;54079;44.540;18.784;2022-08-26T03:42:50;19.80;99.90
55777;DHT22;54079;44.540;18.784;2022-08-26T03:45:17;19.80;99.90
55777;DHT22;54079;44.540;18.784;2022-08-26T03:47:43;19.70;99.90
55777;DHT22;54079;44.540;18.784;2022-08-26T03:50:12;19.70;99.90
55777;DHT22;54079;44.540;18.784;2022-08-26T03:52:39;19.70;99.90
55777;DHT22;54079;44.540;18.784;2022-08-26T03:55:06;19.80;99.90
55777;DHT22;54079;44.540;18.784;2022-08-26T03:57:32;19.80;99.90
55777;DHT22;54079;44.540;18.784;2022-08-26T03:59:58;19.80;99.90
55777;DHT22;54079;44.540;18.784;2022-08-26T04:02:24;19.80;99.90
55777;DHT22;54079;44.540;18.784;2022-08-26T04:04:50;19.80;99.90
55777;DHT22;54079;44.540;18.784;2022-08-26T04:07:16;19.80;99.90
55777;DHT22;54079;44.540;18.784;2022-08-26T04:09:42;19.80;99.90
55777;DHT22;54079;44.540;18.784;2022-08-26T04:12:09;19.80;99.90
55777;DHT22;54079;44.540;18.784;2022-08-26T04:14:36;19.90;99.90
55777;DHT22;54079;44.540;18.784;2022-08-26T04:17:02;19.90;99.90
55777;DHT22;54079;44.540;18.784;2022-08-26T04:19:30;19.90;99.90
55777;DHT22;54079;44.540;18.784;2022-08-26T04:21:57;19.80;99.90
55777;DHT22;54079;44.540;18.784;2022-08-26T04:24:25;19.80;99.90
55777;DHT22;54079;44.540;18.784;2022-08-26T04:26:51;19.90;99.90
55777;DHT22;54079;44.540;18.784;2022-08-26T04:29:20;20.10;99.90
55777;DHT22;54079;44.540;18.784;2022-08-26T04:31:48;20.20;99.90
55777;DHT22;54079;44.540;18.784;2022-08-26T04:34:15;20.30;99.90
55777;DHT22;54079;44.540;18.784;2022-08-26T04:36:41;20.40;99.90
55777;DHT22;54079;44.540;18.784;2022-08-26T04:39:09;20.40;99.90
55777;DHT22;54079;44.540;18.784;2022-08-26T04:41:42;20.50;99.90
55777;DHT22;54079;44.540;18.784;2022-08-26T04:44:08;20.70;99.90
55777;DHT22;54079;44.540;18.784;2022-08-26T04:46:35;21.00;99.90
55777;DHT22;54079;44.540;18.784;2022-08-26T04:49:02;21.10;99.90
55777;DHT22;54079;44.540;18.784;2022-08-26T04:51:28;21.30;99.90
55777;DHT22;54079;44.540;18.784;2022-08-26T04:53:57;21.30;99.90
55777;DHT22;54079;44.540;18.784;2022-08-26T04:56:30;21.40;99.90
55777;DHT22;54079;44.540;18.784;2022-08-26T04:58:57;21.50;99.90
55777;DHT22;54079;44.540;18.784;2022-08-26T05:01:23;21.60;99.90
55777;DHT22;54079;44.540;18.784;2022-08-26T05:03:49;21.60;99.90
55777;DHT22;54079;44.540;18.784;2022-08-26T05:06:16;21.80;99.90
55777;DHT22;54079;44.540;18.784;2022-08-26T05:08:42;22.00;99.90
55777;DHT22;54079;44.540;18.784;2022-08-26T05:11:08;22.10;99.90
55777;DHT22;54079;44.540;18.784;2022-08-26T05:13:35;22.30;99.90
55777;DHT22;54079;44.540;18.784;2022-08-26T05:16:04;22.50;99.90
55777;DHT22;54079;44.540;18.784;2022-08-26T05:18:32;22.70;99.90
55777;DHT22;54079;44.540;18.784;2022-08-26T05:21:00;22.80;99.90
55777;DHT22;54079;44.540;18.784;2022-08-26T05:23:27;22.90;99.90
55777;DHT22;54079;44.540;18.784;2022-08-26T05:25:54;23.10;99.90
55777;DHT22;54079;44.540;18.784;2022-08-26T05:28:20;23.20;99.90
55777;DHT22;54079;44.540;18.784;2022-08-26T05:30:47;23.40;99.90
55777;DHT22;54079;44.540;18.784;2022-08-26T05:33:14;23.60;99.90
55777;DHT22;54079;44.540;18.784;2022-08-26T05:35:41;23.70;99.90
55777;DHT22;54079;44.540;18.784;2022-08-26T05:38:11;23.90;99.90
55777;DHT22;54079;44.540;18.784;2022-08-26T05:40:43;24.00;99.40
55777;DHT22;54079;44.540;18.784;2022-08-26T05:43:10;24.30;97.50
55777;DHT22;54079;44.540;18.784;2022-08-26T05:45:40;24.20;97.40
55777;DHT22;54079;44.540;18.784;2022-08-26T05:48:06;24.30;98.00
55777;DHT22;54079;44.540;18.784;2022-08-26T05:50:38;24.50;97.40
55777;DHT22;54079;44.540;18.784;2022-08-26T05:53:06;25.10;95.80
55777;DHT22;54079;44.540;18.784;2022-08-26T05:55:32;25.50;94.20
55777;DHT22;54079;44.540;18.784;2022-08-26T05:57:58;26.00;92.20
55777;DHT22;54079;44.540;18.784;2022-08-26T06:00:26;27.00;89.50
55777;DHT22;54079;44.540;18.784;2022-08-26T06:02:52;27.40;84.20
55777;DHT22;54079;44.540;18.784;2022-08-26T06:05:18;27.90;82.10
55777;DHT22;54079;44.540;18.784;2022-08-26T06:07:44;28.30;79.20
55777;DHT22;54079;44.540;18.784;2022-08-26T06:10:28;27.90;79.20
55777;DHT22;54079;44.540;18.784;2022-08-26T06:12:55;28.50;77.10
55777;DHT22;54079;44.540;18.784;2022-08-26T06:15:21;29.00;76.90
55777;DHT22;54079;44.540;18.784;2022-08-26T06:17:47;29.80;75.80
55777;DHT22;54079;44.540;18.784;2022-08-26T06:20:13;31.50;70.50
55777;DHT22;54079;44.540;18.784;2022-08-26T06:22:40;32.80;66.60
55777;DHT22;54079;44.540;18.784;2022-08-26T06:25:24;33.60;64.20
55777;DHT22;54079;44.540;18.784;2022-08-26T06:28:02;34.70;62.30
55777;DHT22;54079;44.540;18.784;2022-08-26T06:30:30;35.50;59.50
55777;DHT22;54079;44.540;18.784;2022-08-26T06:32:56;36.40;58.50
55777;DHT22;54079;44.540;18.784;2022-08-26T06:35:22;37.30;56.30
55777;DHT22;54079;44.540;18.784;2022-08-26T06:37:48;37.90;55.10
55777;DHT22;54079;44.540;18.784;2022-08-26T06:40:14;38.20;53.70
55777;DHT22;54079;44.540;18.784;2022-08-26T06:42:40;38.70;53.40
55777;DHT22;54079;44.540;18.784;2022-08-26T06:45:06;39.30;52.30
55777;DHT22;54079;44.540;18.784;2022-08-26T06:47:32;39.60;51.50
55777;DHT22;54079;44.540;18.784;2022-08-26T06:49:58;39.40;49.60
55777;DHT22;54079;44.540;18.784;2022-08-26T06:52:24;39.20;49.50
55777;DHT22;54079;44.540;18.784;2022-08-26T06:54:50;39.20;50.20
55777;DHT22;54079;44.540;18.784;2022-08-26T06:57:16;39.00;50.40
55777;DHT22;54079;44.540;18.784;2022-08-26T06:59:42;39.20;49.60
55777;DHT22;54079;44.540;18.784;2022-08-26T07:02:08;39.30;49.70
55777;DHT22;54079;44.540;18.784;2022-08-26T07:04:34;39.80;50.50
55777;DHT22;54079;44.540;18.784;2022-08-26T07:07:00;40.40;49.00
55777;DHT22;54079;44.540;18.784;2022-08-26T07:09:28;41.10;49.40
55777;DHT22;54079;44.540;18.784;2022-08-26T07:11:57;41.90;48.30
55777;DHT22;54079;44.540;18.784;2022-08-26T07:14:24;42.40;46.90
55777;DHT22;54079;44.540;18.784;2022-08-26T07:16:50;42.80;46.60
55777;DHT22;54079;44.540;18.784;2022-08-26T07:19:23;43.10;44.60
55777;DHT22;54079;44.540;18.784;2022-08-26T07:21:49;43.10;45.20
55777;DHT22;54079;44.540;18.784;2022-08-26T07:24:15;43.10;45.10
55777;DHT22;54079;44.540;18.784;2022-08-26T07:26:41;43.80;45.40
55777;DHT22;54079;44.540;18.784;2022-08-26T07:29:07;44.20;44.70
55777;DHT22;54079;44.540;18.784;2022-08-26T07:31:33;44.10;43.00
55777;DHT22;54079;44.540;18.784;2022-08-26T07:34:02;44.20;44.00
55777;DHT22;54079;44.540;18.784;2022-08-26T07:36:29;44.80;43.70
55777;DHT22;54079;44.540;18.784;2022-08-26T07:38:55;45.00;43.30
55777;DHT22;54079;44.540;18.784;2022-08-26T07:41:23;44.30;43.10
55777;DHT22;54079;44.540;18.784;2022-08-26T07:43:51;44.00;44.40
55777;DHT22;54079;44.540;18.784;2022-08-26T07:46:18;44.50;42.90
55777;DHT22;54079;44.540;18.784;2022-08-26T07:48:48;44.90;43.10
55777;DHT22;54079;44.540;18.784;2022-08-26T07:51:16;45.20;42.60
55777;DHT22;54079;44.540;18.784;2022-08-26T07:53:43;45.60;42.10
55777;DHT22;54079;44.540;18.784;2022-08-26T07:56:09;45.80;41.90
55777;DHT22;54079;44.540;18.784;2022-08-26T07:58:35;45.80;42.40
55777;DHT22;54079;44.540;18.784;2022-08-26T08:01:02;46.00;41.40
55777;DHT22;54079;44.540;18.784;2022-08-26T08:03:28;46.30;41.30
55777;DHT22;54079;44.540;18.784;2022-08-26T08:05:54;46.30;41.40
55777;DHT22;54079;44.540;18.784;2022-08-26T08:08:20;46.10;41.30
55777;DHT22;54079;44.540;18.784;2022-08-26T08:10:46;46.40;41.00
55777;DHT22;54079;44.540;18.784;2022-08-26T08:13:13;45.90;40.60
55777;DHT22;54079;44.540;18.784;2022-08-26T08:15:39;46.20;41.60
55777;DHT22;54079;44.540;18.784;2022-08-26T08:18:05;46.50;40.80
55777;DHT22;54079;44.540;18.784;2022-08-26T08:20:32;46.40;40.10
55777;DHT22;54079;44.540;18.784;2022-08-26T08:22:59;45.90;41.70
55777;DHT22;54079;44.540;18.784;2022-08-26T08:25:25;46.40;41.30
55777;DHT22;54079;44.540;18.784;2022-08-26T08:27:51;46.40;41.20
55777;DHT22;54079;44.540;18.784;2022-08-26T08:30:19;46.60;40.60
55777;DHT22;54079;44.540;18.784;2022-08-26T08:32:46;46.30;39.70
55777;DHT22;54079;44.540;18.784;2022-08-26T08:35:15;46.40;40.80
55777;DHT22;54079;44.540;18.784;2022-08-26T08:37:41;46.40;40.40
55777;DHT22;54079;44.540;18.784;2022-08-26T08:40:09;46.40;39.90
55777;DHT22;54079;44.540;18.784;2022-08-26T08:42:48;46.50;40.30
55777;DHT22;54079;44.540;18.784;2022-08-26T08:48:27;46.80;40.20
55777;DHT22;54079;44.540;18.784;2022-08-26T08:53:44;46.90;39.70
55777;DHT22;54079;44.540;18.784;2022-08-26T08:56:17;47.20;40.00
55777;DHT22;54079;44.540;18.784;2022-08-26T08:59:15;47.30;39.60
55777;DHT22;54079;44.540;18.784;2022-08-26T09:07:38;47.40;38.20
55777;DHT22;54079;44.540;18.784;2022-08-26T09:10:34;47.00;38.10
55777;DHT22;54079;44.540;18.784;2022-08-26T09:13:05;46.50;39.60
55777;DHT22;54079;44.540;18.784;2022-08-26T09:15:56;45.20;40.50
55777;DHT22;54079;44.540;18.784;2022-08-26T09:21:03;42.10;43.30
55777;DHT22;54079;44.540;18.784;2022-08-26T09:23:32;41.10;44.20
55777;DHT22;54079;44.540;18.784;2022-08-26T09:25:59;39.90;44.20
55777;DHT22;54079;44.540;18.784;2022-08-26T09:28:28;38.70;46.20
55777;DHT22;54079;44.540;18.784;2022-08-26T09:34:21;37.70;49.50
55777;DHT22;54079;44.540;18.784;2022-08-26T09:36:54;37.40;49.80
55777;DHT22;54079;44.540;18.784;2022-08-26T09:45:01;36.50;49.80
55777;DHT22;54079;44.540;18.784;2022-08-26T09:47:50;36.10;51.50
55777;DHT22;54079;44.540;18.784;2022-08-26T09:53:17;36.20;51.10
55777;DHT22;54079;44.540;18.784;2022-08-26T09:55:46;36.00;50.00
55777;DHT22;54079;44.540;18.784;2022-08-26T09:58:34;35.50;53.70
55777;DHT22;54079;44.540;18.784;2022-08-26T10:01:03;35.40;52.90
55777;DHT22;54079;44.540;18.784;2022-08-26T10:03:35;35.40;52.10
55777;DHT22;54079;44.540;18.784;2022-08-26T10:08:43;35.50;54.10
55777;DHT22;54079;44.540;18.784;2022-08-26T10:11:37;35.50;52.20
55777;DHT22;54079;44.540;18.784;2022-08-26T10:14:21;35.50;52.80
55777;DHT22;54079;44.540;18.784;2022-08-26T10:16:57;35.50;54.00
55777;DHT22;54079;44.540;18.784;2022-08-26T10:19:34;35.30;52.30
55777;DHT22;54079;44.540;18.784;2022-08-26T10:22:26;34.90;52.60
55777;DHT22;54079;44.540;18.784;2022-08-26T10:24:55;35.00;55.10
55777;DHT22;54079;44.540;18.784;2022-08-26T10:27:38;35.40;54.50
55777;DHT22;54079;44.540;18.784;2022-08-26T10:30:14;35.60;53.40
55777;DHT22;54079;44.540;18.784;2022-08-26T10:32:56;35.70;51.70
55777;DHT22;54079;44.540;18.784;2022-08-26T10:35:26;35.80;51.80
55777;DHT22;54079;44.540;18.784;2022-08-26T10:37:55;35.90;53.10
55777;DHT22;54079;44.540;18.784;2022-08-26T10:43:18;36.60;51.70
55777;DHT22;54079;44.540;18.784;2022-08-26T10:45:52;36.90;52.90
55777;DHT22;54079;44.540;18.784;2022-08-26T10:54:49;37.10;52.80
55777;DHT22;54079;44.540;18.784;2022-08-26T10:57:42;37.30;52.50
55777;DHT22;54079;44.540;18.784;2022-08-26T11:00:28;37.50;51.40
55777;DHT22;54079;44.540;18.784;2022-08-26T11:03:43;37.50;51.20
55777;DHT22;54079;44.540;18.784;2022-08-26T11:08:50;37.50;50.10
55777;DHT22;54079;44.540;18.784;2022-08-26T11:16:43;36.30;51.80
55777;DHT22;54079;44.540;18.784;2022-08-26T11:40:17;33.40;56.30
55777;DHT22;54079;44.540;18.784;2022-08-26T11:45:25;33.80;57.60
55777;DHT22;54079;44.540;18.784;2022-08-26T11:47:52;33.80;56.10
55777;DHT22;54079;44.540;18.784;2022-08-26T11:50:25;34.00;57.30
55777;DHT22;54079;44.540;18.784;2022-08-26T11:53:00;34.20;57.00
55777;DHT22;54079;44.540;18.784;2022-08-26T11:55:32;34.50;56.10
55777;DHT22;54079;44.540;18.784;2022-08-26T11:58:01;35.00;53.20
55777;DHT22;54079;44.540;18.784;2022-08-26T12:00:33;34.90;51.20
55777;DHT22;54079;44.540;18.784;2022-08-26T12:03:06;35.10;51.70
55777;DHT22;54079;44.540;18.784;2022-08-26T12:05:40;35.10;52.00
55777;DHT22;54079;44.540;18.784;2022-08-26T12:08:09;35.20;53.20
55777;DHT22;54079;44.540;18.784;2022-08-26T12:10:36;35.30;52.30
55777;DHT22;54079;44.540;18.784;2022-08-26T12:13:04;35.40;51.30
55777;DHT22;54079;44.540;18.784;2022-08-26T12:15:31;35.40;53.10
55777;DHT22;54079;44.540;18.784;2022-08-26T12:18:19;35.20;53.90
55777;DHT22;54079;44.540;18.784;2022-08-26T12:20:46;35.10;55.00
55777;DHT22;54079;44.540;18.784;2022-08-26T12:26:17;34.20;54.30
55777;DHT22;54079;44.540;18.784;2022-08-26T12:29:02;33.90;54.30
55777;DHT22;54079;44.540;18.784;2022-08-26T12:31:37;33.60;54.60
55777;DHT22;54079;44.540;18.784;2022-08-26T12:34:06;33.20;56.70
55777;DHT22;54079;44.540;18.784;2022-08-26T12:36:39;33.00;56.50
55777;DHT22;54079;44.540;18.784;2022-08-26T12:39:13;32.90;57.40
55777;DHT22;54079;44.540;18.784;2022-08-26T12:41:50;32.80;58.10
55777;DHT22;54079;44.540;18.784;2022-08-26T12:47:09;32.60;58.30
55777;DHT22;54079;44.540;18.784;2022-08-26T12:49:38;32.50;58.50
55777;DHT22;54079;44.540;18.784;2022-08-26T12:52:06;32.50;57.50
55777;DHT22;54079;44.540;18.784;2022-08-26T12:54:33;32.50;57.60
55777;DHT22;54079;44.540;18.784;2022-08-26T12:57:27;32.30;59.10
55777;DHT22;54079;44.540;18.784;2022-08-26T13:02:56;32.20;60.80
55777;DHT22;54079;44.540;18.784;2022-08-26T13:05:25;32.00;60.50
55777;DHT22;54079;44.540;18.784;2022-08-26T13:08:15;31.80;60.40
55777;DHT22;54079;44.540;18.784;2022-08-26T13:10:45;31.90;60.60
55777;DHT22;54079;44.540;18.784;2022-08-26T13:13:11;32.00;60.00
55777;DHT22;54079;44.540;18.784;2022-08-26T13:15:37;32.00;59.40
55777;DHT22;54079;44.540;18.784;2022-08-26T13:18:04;32.00;58.50
55777;DHT22;54079;44.540;18.784;2022-08-26T13:20:30;32.00;58.50
55777;DHT22;54079;44.540;18.784;2022-08-26T13:22:57;32.10;57.70
55777;DHT22;54079;44.540;18.784;2022-08-26T13:25:23;32.10;57.30
55777;DHT22;54079;44.540;18.784;2022-08-26T13:27:49;32.20;57.20
55777;DHT22;54079;44.540;18.784;2022-08-26T13:30:15;32.20;57.40
55777;DHT22;54079;44.540;18.784;2022-08-26T13:32:41;32.00;57.50
55777;DHT22;54079;44.540;18.784;2022-08-26T13:35:07;31.90;57.80
55777;DHT22;54079;44.540;18.784;2022-08-26T13:37:33;31.80;55.70
55777;DHT22;54079;44.540;18.784;2022-08-26T13:39:59;31.80;56.20
55777;DHT22;54079;44.540;18.784;2022-08-26T13:42:25;31.80;56.60
55777;DHT22;54079;44.540;18.784;2022-08-26T13:44:51;31.90;56.00
55777;DHT22;54079;44.540;18.784;2022-08-26T13:47:22;31.80;57.20
55777;DHT22;54079;44.540;18.784;2022-08-26T13:49:50;31.90;56.90
55777;DHT22;54079;44.540;18.784;2022-08-26T13:52:16;31.70;57.70
55777;DHT22;54079;44.540;18.784;2022-08-26T13:54:42;31.80;58.10
55777;DHT22;54079;44.540;18.784;2022-08-26T13:57:08;32.00;57.50
55777;DHT22;54079;44.540;18.784;2022-08-26T13:59:34;31.90;56.90
55777;DHT22;54079;44.540;18.784;2022-08-26T14:02:00;31.90;57.20
55777;DHT22;54079;44.540;18.784;2022-08-26T14:04:28;31.80;58.60
55777;DHT22;54079;44.540;18.784;2022-08-26T14:06:54;31.90;57.90
55777;DHT22;54079;44.540;18.784;2022-08-26T14:09:20;31.80;58.20
55777;DHT22;54079;44.540;18.784;2022-08-26T14:11:46;31.60;56.90
55777;DHT22;54079;44.540;18.784;2022-08-26T14:14:11;31.60;58.40
55777;DHT22;54079;44.540;18.784;2022-08-26T14:16:38;31.60;56.50
55777;DHT22;54079;44.540;18.784;2022-08-26T14:19:06;31.60;58.40
55777;DHT22;54079;44.540;18.784;2022-08-26T14:21:36;31.60;58.20
55777;DHT22;54079;44.540;18.784;2022-08-26T14:24:04;31.70;57.50
55777;DHT22;54079;44.540;18.784;2022-08-26T14:26:30;31.70;56.30
55777;DHT22;54079;44.540;18.784;2022-08-26T14:28:57;31.70;56.60
55777;DHT22;54079;44.540;18.784;2022-08-26T14:31:24;31.70;55.30
55777;DHT22;54079;44.540;18.784;2022-08-26T14:33:51;31.50;56.00
55777;DHT22;54079;44.540;18.784;2022-08-26T14:36:17;31.50;57.10
55777;DHT22;54079;44.540;18.784;2022-08-26T14:39:06;31.50;57.90
55777;DHT22;54079;44.540;18.784;2022-08-26T14:41:34;31.50;56.90
55777;DHT22;54079;44.540;18.784;2022-08-26T14:44:05;31.40;57.80
55777;DHT22;54079;44.540;18.784;2022-08-26T14:46:38;31.50;58.70
55777;DHT22;54079;44.540;18.784;2022-08-26T14:49:05;31.50;59.20
55777;DHT22;54079;44.540;18.784;2022-08-26T14:51:31;31.50;58.60
55777;DHT22;54079;44.540;18.784;2022-08-26T14:53:57;31.50;58.30
55777;DHT22;54079;44.540;18.784;2022-08-26T14:56:59;31.40;58.60
55777;DHT22;54079;44.540;18.784;2022-08-26T14:59:32;31.40;58.50
55777;DHT22;54079;44.540;18.784;2022-08-26T15:01:59;31.30;58.30
55777;DHT22;54079;44.540;18.784;2022-08-26T15:04:25;31.20;58.10
55777;DHT22;54079;44.540;18.784;2022-08-26T15:06:56;31.30;58.00
55777;DHT22;54079;44.540;18.784;2022-08-26T15:09:24;31.20;58.30
55777;DHT22;54079;44.540;18.784;2022-08-26T15:11:50;31.20;59.90
55777;DHT22;54079;44.540;18.784;2022-08-26T15:14:18;31.10;59.20
55777;DHT22;54079;44.540;18.784;2022-08-26T15:16:46;31.10;58.70
55777;DHT22;54079;44.540;18.784;2022-08-26T15:19:12;31.10;60.10
55777;DHT22;54079;44.540;18.784;2022-08-26T15:21:40;31.00;59.20
55777;DHT22;54079;44.540;18.784;2022-08-26T15:24:06;31.10;60.60
55777;DHT22;54079;44.540;18.784;2022-08-26T15:26:32;31.10;60.70
55777;DHT22;54079;44.540;18.784;2022-08-26T15:28:59;31.00;60.10
55777;DHT22;54079;44.540;18.784;2022-08-26T15:31:28;31.10;60.00
55777;DHT22;54079;44.540;18.784;2022-08-26T15:34:04;31.10;60.20
55777;DHT22;54079;44.540;18.784;2022-08-26T15:36:31;31.10;60.00
55777;DHT22;54079;44.540;18.784;2022-08-26T15:38:58;31.00;60.70
55777;DHT22;54079;44.540;18.784;2022-08-26T15:41:25;31.00;60.10
55777;DHT22;54079;44.540;18.784;2022-08-26T15:43:51;30.90;59.70
55777;DHT22;54079;44.540;18.784;2022-08-26T15:46:18;30.90;60.50
55777;DHT22;54079;44.540;18.784;2022-08-26T15:48:44;30.80;60.90
55777;DHT22;54079;44.540;18.784;2022-08-26T15:51:23;30.80;61.90
55777;DHT22;54079;44.540;18.784;2022-08-26T15:53:51;30.80;61.50
55777;DHT22;54079;44.540;18.784;2022-08-26T15:56:17;30.70;61.10
55777;DHT22;54079;44.540;18.784;2022-08-26T15:58:43;30.80;61.30
55777;DHT22;54079;44.540;18.784;2022-08-26T16:01:09;30.70;61.60
55777;DHT22;54079;44.540;18.784;2022-08-26T16:03:35;30.70;62.80
55777;DHT22;54079;44.540;18.784;2022-08-26T16:06:01;30.70;62.80
55777;DHT22;54079;44.540;18.784;2022-08-26T16:08:27;30.70;63.00
55777;DHT22;54079;44.540;18.784;2022-08-26T16:10:53;30.70;62.70
55777;DHT22;54079;44.540;18.784;2022-08-26T16:13:20;30.70;63.30
55777;DHT22;54079;44.540;18.784;2022-08-26T16:15:46;30.70;64.50
55777;DHT22;54079;44.540;18.784;2022-08-26T16:18:13;30.60;63.30
55777;DHT22;54079;44.540;18.784;2022-08-26T16:20:48;30.50;62.90
55777;DHT22;54079;44.540;18.784;2022-08-26T16:23:14;30.40;62.80
55777;DHT22;54079;44.540;18.784;2022-08-26T16:25:40;30.30;62.70
55777;DHT22;54079;44.540;18.784;2022-08-26T16:28:07;30.30;65.70
55777;DHT22;54079;44.540;18.784;2022-08-26T16:30:33;30.20;63.80
55777;DHT22;54079;44.540;18.784;2022-08-26T16:32:59;30.10;64.60
55777;DHT22;54079;44.540;18.784;2022-08-26T16:35:25;30.00;64.80
55777;DHT22;54079;44.540;18.784;2022-08-26T16:37:52;29.90;65.20
55777;DHT22;54079;44.540;18.784;2022-08-26T16:40:18;29.80;64.80
55777;DHT22;54079;44.540;18.784;2022-08-26T16:42:44;29.80;65.10
55777;DHT22;54079;44.540;18.784;2022-08-26T16:45:10;29.70;67.10
55777;DHT22;54079;44.540;18.784;2022-08-26T16:47:36;29.60;66.70
55777;DHT22;54079;44.540;18.784;2022-08-26T16:50:04;29.40;69.20
55777;DHT22;54079;44.540;18.784;2022-08-26T16:52:31;29.30;69.80